Grand Rapids, MI (49501)

10:27 AM EDT on July 30, 2016 (GMT -0400)
WXGR.NET | | Change Station

Elev 756 ft 42.96 °N, 85.63 °W | Updated 6 seconds ago

Mostly Cloudy
Mostly Cloudy
66.2 °F
Feels Like 66.2 °F
N
1.1
Wind Variable Wind from South
Gusts 1.1 mph

Today
High -- | Low -- °F
--% Chance of Precip.
Yesterday
High -- | Low -- °F
Precip. -- in
Pressure 30.01 in
Visibility 10.0 miles
Clouds Few 700 ft
Scattered Clouds 8000 ft
Mostly Cloudy 10000 ft
Mostly Cloudy 15000 ft
Dew Point 66 °F
Humidity 100%
Rainfall 0.25 in
Snow Depth Not available.
6:32 AM 9:05 PM
Waning Crescent, 13% visible
METAR KGRR 301353Z 07007KT 10SM FEW007 SCT080 BKN100 BKN150 19/16 A3001 RMK AO2 SLP161 T01890161 $
Pressure 30.01 in
Visibility 10.0 miles
Clouds Few 700 ft
Scattered Clouds 8000 ft
Mostly Cloudy 10000 ft
Mostly Cloudy 15000 ft
Dew Point 66 °F
Humidity 100%
Rainfall 0.25 in
Snow Depth Not available.
6:32 AM 9:05 PM
Waning Crescent, 13% visible
METAR KGRR 301353Z 07007KT 10SM FEW007 SCT080 BKN100 BKN150 19/16 A3001 RMK AO2 SLP161 T01890161 $

10-Day Weather Forecast

Almanac

Astronomy

Jul. 30, 2016 Rise Set
Actual Time
Civil Twilight
Nautical Twilight
Astronomical Twilight
Moon
Length of Visible Light
Length of Day
Tomorrow will be .
, % of the Moon is Illuminated

Today's Extremes

State Highs State Lows

Community

WunderPhotos

Upload Photos

1,928,565 photos uploaded!

WunderBlog® & News

Nearby

Air Quality

  Air Quality AQ Index Pollutant
Not available.

Snow Depth

Station Depth Elevation

Earthquake Activity

City Distance Mag. Time & Date
Minimum magnitude displayed is 2.5.

Coastal Water Temperatures

Place Temperature

Stations

Nearby Weather Stations

Station Location Temp. Windchill Dew Point Humidity Wind Precip. Elev Updated Type
                   

Watches & Warnings

There are currently no watches in effect.